Pagrindinis puslapis
METAR-TAF:

METAR-TAF

Oro uostai :

Medanas, Šiaurės Sumatra, Indonezija

platuma: 03-34N, ilguma: 098-41E, Aukštis: 25 m

Dabartinis oras

Ataskaita buvo paskelbta 43 minutes, ne 04:30 UTC
Vėjas 8 kt iš Rytų/Pietryčių, svyruoja nuo Rytų ir Pietų
Temperatūra 30°C
Drėgmė 66%
Slėgis 1010 hPa
Matomumas 10 km arba daugiau
Išsisklaidę debesys ne aukštis 1800 ft

METAR: WIMM 140430Z 11008KT 080V180 9999 SCT018 30/23 Q1010 NOSIG

Laikas: 12:13 (05:13 UTC)

Prognozė

Ataskaita buvo paskelbta 6 valandos ir 13 minutes, ne 23:00 UTC
Prognozė galioja nuo 14 metu 00 UTC su 15 metu 00 UTC
Vėjas 10 kt nuo kintamojo kryptimis
Matomumas: 9000 m
Išsisklaidę debesys ne aukštis 1700 ft
Laikinai
nuo 14 metu 09 UTC su 14 metu 13 UTC
Matomumas: 4000 m
Mažai debesys ne aukštis 1600 ft, Liūtiniai kamuoliniai debesys.
perkūnija, lietus
Tapsmas
nuo 14 metu 13 UTC su 14 metu 15 UTC
Matomumas: 4000 m
migla

TAF: WIMM 132300Z 1400/1500 VRB10KT 9000 SCT017 TEMPO 1409/1413 4000 -TSRA FEW016CB BECMG 1413/1415 4000 HZ

Orai ataskaitas ir orų prognozės (METAR, TAF).

turimą stotys yra geltonos ir raudonos taškus žemėlapyje.

Perkelti pele per norėdami pamatyti stoties vardą.

Tada spustelėkite, norėdami matyti oro stebėjimo ir prognozės.

Norėdami pakeisti žemėlapį: spustelėkite ant žalios mygtukų su juodo kryžiaus žemyn,; žalią mygtuką su brūkšneliu, jei norite nutolinti; arba žalių rodyklių gretimoms žemėlapius.


METAR-TAF: